createdAt,value
2018-12-19T00:00:09.125Z,0
2018-12-19T00:01:09.743Z,0
2018-12-19T00:02:54.767Z,0
2018-12-19T00:03:55.335Z,0
2018-12-19T00:04:55.901Z,0
2018-12-19T00:05:56.468Z,0
2018-12-19T00:07:41.384Z,0
2018-12-19T00:08:41.951Z,0
2018-12-19T00:09:42.522Z,0
2018-12-19T00:10:43.089Z,0
2018-12-19T00:12:28.056Z,0
2018-12-19T00:13:28.623Z,0
2018-12-19T00:14:29.194Z,0
2018-12-19T00:15:29.762Z,0
2018-12-19T00:17:14.729Z,4
2018-12-19T00:18:15.299Z,4
2018-12-19T00:19:15.865Z,4
2018-12-19T00:20:16.433Z,4
2018-12-19T00:22:01.400Z,4
2018-12-19T00:23:01.967Z,4
2018-12-19T00:24:02.536Z,4
2018-12-19T00:25:03.132Z,4
2018-12-19T00:26:48.020Z,4
2018-12-19T00:27:48.587Z,4
2018-12-19T00:28:49.158Z,4
2018-12-19T00:29:49.727Z,4
2018-12-19T00:31:34.692Z,4
2018-12-19T00:32:35.272Z,4
2018-12-19T00:33:36.022Z,4
2018-12-19T00:34:36.592Z,4
2018-12-19T00:36:21.508Z,0
2018-12-19T00:37:22.077Z,0
2018-12-19T00:38:22.845Z,0
2018-12-19T00:39:23.415Z,0
2018-12-19T00:41:08.352Z,0
2018-12-19T00:42:08.901Z,0
2018-12-19T00:43:09.471Z,0
2018-12-19T00:44:10.039Z,0
2018-12-19T00:45:54.955Z,0
2018-12-19T00:46:55.525Z,0
2018-12-19T00:47:56.093Z,0
2018-12-19T00:48:56.662Z,0
2018-12-19T00:50:41.628Z,0
2018-12-19T00:51:42.197Z,0
2018-12-19T00:52:42.765Z,0
2018-12-19T00:53:43.374Z,0
2018-12-19T00:55:28.297Z,0
2018-12-19T00:56:28.865Z,0
2018-12-19T00:57:29.438Z,0
2018-12-19T00:58:30.197Z,0
2018-12-19T01:00:15.113Z,0
2018-12-19T01:01:15.680Z,0
2018-12-19T01:02:16.250Z,0
2018-12-19T01:03:16.817Z,0
2018-12-19T01:05:01.737Z,0
2018-12-19T01:06:02.301Z,0
2018-12-19T01:07:02.870Z,0
2018-12-19T01:08:03.437Z,0
2018-12-19T01:09:48.403Z,0
2018-12-19T01:10:48.973Z,0
2018-12-19T01:11:49.591Z,0
2018-12-19T01:12:50.158Z,0
2018-12-19T01:14:35.145Z,0
2018-12-19T01:15:35.663Z,0
2018-12-19T01:16:36.283Z,0
2018-12-19T01:17:36.894Z,0
2018-12-19T01:19:21.811Z,0
2018-12-19T01:20:22.379Z,0
2018-12-19T01:21:22.992Z,0
2018-12-19T01:22:23.560Z,0
2018-12-19T01:24:08.475Z,0
2018-12-19T01:25:09.048Z,0
2018-12-19T01:26:09.615Z,0
2018-12-19T01:27:10.184Z,0
2018-12-19T01:39:39.913Z,0
2018-12-19T01:40:40.481Z,0
2018-12-19T01:41:41.100Z,0
2018-12-19T01:42:41.712Z,0
2018-12-19T01:43:42.280Z,0
2018-12-19T01:44:42.895Z,0
2018-12-19T01:45:43.515Z,0
2018-12-19T01:46:44.084Z,0
2018-12-19T01:47:44.651Z,0
2018-12-19T01:48:45.223Z,0
2018-12-19T01:49:45.839Z,0
2018-12-19T01:50:46.407Z,0
2018-12-19T01:51:46.975Z,0
2018-12-19T01:52:47.547Z,0
2018-12-19T01:53:48.113Z,0
2018-12-19T01:54:48.682Z,0
2018-12-19T01:55:49.250Z,0
2018-12-19T01:56:49.868Z,0
2018-12-19T01:57:50.437Z,0
2018-12-19T01:58:51.007Z,0
2018-12-19T01:59:51.627Z,0
2018-12-19T02:00:52.197Z,0
2018-12-19T02:01:52.765Z,0
2018-12-19T02:02:53.387Z,0
2018-12-19T02:03:53.955Z,0
2018-12-19T02:04:54.573Z,0
2018-12-19T02:05:55.143Z,0
2018-12-19T02:06:55.712Z,0
2018-12-19T02:07:56.278Z,0
2018-12-19T02:08:56.847Z,0
2018-12-19T02:09:57.416Z,0
2018-12-19T02:10:57.983Z,0
2018-12-19T02:11:58.551Z,0
2018-12-19T02:12:59.119Z,0
2018-12-19T02:13:59.688Z,0
2018-12-19T02:15:00.257Z,0
2018-12-19T02:16:00.875Z,0
2018-12-19T02:17:01.442Z,0
2018-12-19T02:18:02.070Z,0
2018-12-19T02:19:02.592Z,0
2018-12-19T02:20:03.211Z,0
2018-12-19T02:21:03.780Z,0
2018-12-19T02:22:04.349Z,0
2018-12-19T02:23:04.917Z,0
2018-12-19T02:24:05.485Z,0
2018-12-19T02:25:06.057Z,0
2018-12-19T02:26:06.625Z,0
2018-12-19T02:27:07.193Z,0
2018-12-19T02:28:07.763Z,0
2018-12-19T02:29:08.331Z,0
2018-12-19T02:30:08.949Z,0
2018-12-19T02:31:09.517Z,0
2018-12-19T02:32:10.085Z,0
2018-12-19T02:33:10.804Z,0
2018-12-19T02:34:11.382Z,0
2018-12-19T02:35:11.957Z,0
2018-12-19T02:36:12.526Z,0
2018-12-19T02:37:13.094Z,0
2018-12-19T02:38:13.661Z,0
2018-12-19T02:39:14.230Z,0
2018-12-19T02:40:14.799Z,0
2018-12-19T02:41:15.368Z,0
2018-12-19T02:42:15.987Z,0
2018-12-19T02:43:16.556Z,0
2018-12-19T02:44:17.123Z,0
2018-12-19T02:45:17.695Z,0
2018-12-19T02:46:18.261Z,0
2018-12-19T02:47:18.879Z,0
2018-12-19T02:48:19.448Z,0
2018-12-19T02:49:20.017Z,0
2018-12-19T02:50:20.585Z,0
2018-12-19T02:51:21.204Z,0
2018-12-19T02:52:21.775Z,0
2018-12-19T02:53:22.340Z,0
2018-12-19T02:54:22.909Z,0
2018-12-19T02:55:23.478Z,0
2018-12-19T02:56:24.046Z,0
2018-12-19T02:57:24.657Z,0
2018-12-19T02:58:25.228Z,0
2018-12-19T02:59:25.996Z,0
2018-12-19T03:00:26.563Z,0
2018-12-19T03:01:27.133Z,0
2018-12-19T03:02:27.701Z,0
2018-12-19T03:03:28.267Z,0
2018-12-19T03:04:28.836Z,0
2018-12-19T03:05:29.406Z,0
2018-12-19T03:06:29.976Z,0
2018-12-19T03:07:30.544Z,0
2018-12-19T03:08:31.113Z,0
2018-12-19T03:09:31.736Z,0
2018-12-19T03:10:32.297Z,0
2018-12-19T03:11:32.865Z,0
2018-12-19T03:12:33.433Z,0
2018-12-19T03:13:34.054Z,0
2018-12-19T03:14:34.618Z,0
2018-12-19T03:15:35.188Z,0
2018-12-19T03:16:35.759Z,0
2018-12-19T03:17:36.322Z,0
2018-12-19T03:18:36.942Z,0
2018-12-19T03:19:37.510Z,0
2018-12-19T03:20:38.076Z,0
2018-12-19T03:21:38.655Z,0
2018-12-19T03:22:39.226Z,0
2018-12-19T03:23:39.793Z,0
2018-12-19T03:24:40.408Z,0
2018-12-19T03:25:40.977Z,0
2018-12-19T03:26:41.545Z,0
2018-12-19T03:27:42.114Z,0
2018-12-19T03:28:42.732Z,0
2018-12-19T03:29:43.299Z,0
2018-12-19T03:30:43.885Z,0
2018-12-19T03:31:44.474Z,0
2018-12-19T03:32:45.049Z,0
2018-12-19T03:33:45.655Z,0
2018-12-19T03:34:46.224Z,0
2018-12-19T03:35:46.790Z,0
2018-12-19T03:36:47.360Z,0
2018-12-19T03:37:47.927Z,0
2018-12-19T03:38:48.546Z,0
2018-12-19T03:39:50.411Z,0
2018-12-19T03:40:49.772Z,0
2018-12-19T03:41:50.341Z,0
2018-12-19T03:42:50.909Z,0
2018-12-19T03:43:51.479Z,0
2018-12-19T03:44:52.049Z,0
2018-12-19T03:45:52.616Z,0
2018-12-19T03:46:53.187Z,0
2018-12-19T03:47:53.755Z,0
2018-12-19T03:48:54.323Z,0
2018-12-19T03:49:54.893Z,0
2018-12-19T03:50:55.462Z,0
2018-12-19T03:51:56.030Z,0
2018-12-19T03:52:56.600Z,0
2018-12-19T03:53:57.169Z,0
2018-12-19T03:54:57.739Z,0
2018-12-19T03:55:58.348Z,0
2018-12-19T03:56:58.966Z,0
2018-12-19T03:57:59.588Z,0
2018-12-19T03:59:00.203Z,0
2018-12-19T04:00:00.775Z,0
2018-12-19T04:01:01.358Z,0
2018-12-19T04:02:01.954Z,0
2018-12-19T04:03:02.523Z,0
2018-12-19T04:04:03.091Z,0
2018-12-19T04:05:03.658Z,0
2018-12-19T04:06:04.228Z,0
2018-12-19T04:07:04.795Z,0
2018-12-19T04:08:05.361Z,0
2018-12-19T04:09:05.942Z,0
2018-12-19T04:10:06.543Z,0
2018-12-19T04:11:07.110Z,0
2018-12-19T04:12:07.678Z,0
2018-12-19T04:13:08.295Z,0
2018-12-19T04:14:08.914Z,0
2018-12-19T04:15:09.480Z,0
2018-12-19T04:16:10.050Z,0
2018-12-19T04:17:10.620Z,0
2018-12-19T04:18:11.188Z,0
2018-12-19T04:19:11.755Z,0
2018-12-19T04:20:12.324Z,0
2018-12-19T04:21:12.893Z,0
2018-12-19T04:22:13.464Z,0
2018-12-19T04:23:14.079Z,0
2018-12-19T04:24:14.647Z,0
2018-12-19T04:25:15.216Z,0
2018-12-19T04:26:15.937Z,0
2018-12-19T04:27:16.506Z,0
2018-12-19T04:28:17.073Z,0
2018-12-19T04:29:17.640Z,0
2018-12-19T04:30:18.213Z,0
2018-12-19T04:31:18.820Z,0
2018-12-19T04:32:19.438Z,0
2018-12-19T04:33:20.058Z,0
2018-12-19T04:34:20.625Z,0
2018-12-19T04:35:21.193Z,0
2018-12-19T04:36:21.762Z,0
2018-12-19T04:37:22.329Z,8
2018-12-19T04:38:22.896Z,0
2018-12-19T04:39:23.465Z,0
2018-12-19T04:40:24.035Z,0
2018-12-19T04:41:24.602Z,0
2018-12-19T04:42:25.174Z,0
2018-12-19T04:43:25.743Z,0
2018-12-19T04:44:26.404Z,0
2018-12-19T04:45:26.971Z,0
2018-12-19T04:46:27.538Z,0
2018-12-19T04:47:28.156Z,0
2018-12-19T04:48:28.724Z,0
2018-12-19T04:49:29.290Z,0
2018-12-19T04:50:29.861Z,0
2018-12-19T04:51:30.431Z,0
2018-12-19T04:52:31.093Z,0
2018-12-19T04:53:31.660Z,0
2018-12-19T04:54:32.228Z,0
2018-12-19T04:55:32.799Z,0
2018-12-19T04:56:33.366Z,0
2018-12-19T04:57:33.937Z,0
2018-12-19T04:58:34.505Z,0
2018-12-19T04:59:35.074Z,0
2018-12-19T05:00:35.640Z,0
2018-12-19T05:01:36.261Z,0
2018-12-19T05:02:36.879Z,0
2018-12-19T05:03:37.449Z,0
2018-12-19T05:04:38.017Z,0
2018-12-19T05:05:38.584Z,0
2018-12-19T05:06:39.207Z,0
2018-12-19T05:07:39.816Z,0
2018-12-19T05:08:40.382Z,0
2018-12-19T05:09:40.950Z,0
2018-12-19T05:10:41.518Z,0
2018-12-19T05:11:42.137Z,0
2018-12-19T05:12:42.702Z,0
2018-12-19T05:13:43.270Z,0
2018-12-19T05:14:43.839Z,0
2018-12-19T05:15:44.407Z,0
2018-12-19T05:16:44.973Z,0
2018-12-19T05:17:45.540Z,0
2018-12-19T05:18:46.110Z,0
2018-12-19T05:19:46.731Z,0
2018-12-19T05:20:47.348Z,0
2018-12-19T05:21:47.917Z,0
2018-12-19T05:22:48.489Z,0
2018-12-19T05:23:49.052Z,0
2018-12-19T05:24:49.622Z,0
2018-12-19T05:25:50.189Z,0
2018-12-19T05:26:50.809Z,0
2018-12-19T05:27:51.376Z,0
2018-12-19T05:28:51.945Z,0
2018-12-19T05:29:53.269Z,0
2018-12-19T05:30:53.854Z,0
2018-12-19T05:31:54.424Z,0
2018-12-19T05:32:54.993Z,0
2018-12-19T05:33:55.561Z,0
2018-12-19T05:34:56.179Z,0
2018-12-19T05:35:56.745Z,0
2018-12-19T05:36:57.365Z,0
2018-12-19T05:37:57.933Z,0
2018-12-19T05:38:58.502Z,0
2018-12-19T05:39:59.113Z,0
2018-12-19T05:40:59.683Z,0
2018-12-19T05:42:00.250Z,0
2018-12-19T05:43:00.818Z,0
2018-12-19T05:44:01.386Z,0
2018-12-19T05:45:01.960Z,0
2018-12-19T05:46:02.524Z,0
2018-12-19T05:47:03.141Z,0
2018-12-19T05:48:03.710Z,0
2018-12-19T05:49:04.277Z,0
2018-12-19T05:50:04.895Z,0
2018-12-19T05:51:05.474Z,0
2018-12-19T05:52:06.035Z,0
2018-12-19T05:53:06.653Z,0
2018-12-19T05:54:07.221Z,0
2018-12-19T05:55:07.789Z,0
2018-12-19T05:56:08.361Z,0
2018-12-19T05:57:08.970Z,0
2018-12-19T05:58:09.537Z,0
2018-12-19T05:59:10.151Z,0
2018-12-19T06:00:10.720Z,0
2018-12-19T06:01:11.285Z,0
2018-12-19T06:02:11.857Z,0
2018-12-19T06:03:12.422Z,0
2018-12-19T06:04:13.040Z,0
2018-12-19T06:05:13.661Z,0
2018-12-19T06:06:14.232Z,0
2018-12-19T06:07:14.796Z,0
2018-12-19T06:08:15.364Z,0
2018-12-19T06:09:15.932Z,0
2018-12-19T06:10:16.551Z,0
2018-12-19T06:11:17.120Z,0
2018-12-19T06:12:17.686Z,0
2018-12-19T06:13:18.256Z,0
2018-12-19T06:14:18.826Z,0
2018-12-19T06:15:19.392Z,0
2018-12-19T06:16:19.966Z,0
2018-12-19T06:17:20.528Z,0
2018-12-19T06:18:21.098Z,0
2018-12-19T06:19:21.671Z,0
2018-12-19T06:20:22.294Z,0
2018-12-19T06:21:22.858Z,0
2018-12-19T06:22:23.425Z,0
2018-12-19T06:23:24.001Z,0
2018-12-19T06:24:24.628Z,0
2018-12-19T06:25:25.189Z,0
2018-12-19T06:26:25.758Z,0
2018-12-19T06:27:26.375Z,0
2018-12-19T06:28:26.945Z,0
2018-12-19T06:29:27.519Z,0
2018-12-19T06:30:28.182Z,0
2018-12-19T06:31:28.848Z,0
2018-12-19T06:32:29.418Z,0
2018-12-19T06:33:30.029Z,0
2018-12-19T06:34:30.597Z,0
2018-12-19T06:35:31.167Z,0
2018-12-19T06:36:31.733Z,0
2018-12-19T06:37:32.402Z,0
2018-12-19T06:38:32.971Z,0
2018-12-19T06:39:33.536Z,0
2018-12-19T06:40:34.106Z,0
2018-12-19T06:41:34.674Z,0
2018-12-19T06:42:35.241Z,0
2018-12-19T06:43:35.808Z,0
2018-12-19T06:44:36.426Z,0
2018-12-19T06:45:36.995Z,0
2018-12-19T06:46:37.612Z,0
2018-12-19T06:47:38.180Z,0
2018-12-19T06:48:38.747Z,0
2018-12-19T06:49:39.359Z,0
2018-12-19T06:50:39.930Z,0
2018-12-19T06:51:40.496Z,0
2018-12-19T06:52:41.064Z,0
2018-12-19T06:53:41.684Z,0
2018-12-19T06:54:42.254Z,0
2018-12-19T06:55:42.824Z,0
2018-12-19T06:56:43.389Z,0
2018-12-19T06:57:44.010Z,0
2018-12-19T06:58:44.578Z,0
2018-12-19T06:59:45.146Z,0
2018-12-19T07:00:45.714Z,0
2018-12-19T07:01:46.335Z,0
2018-12-19T07:02:46.901Z,0
2018-12-19T07:03:47.468Z,0
2018-12-19T07:04:48.036Z,0
2018-12-19T07:05:48.605Z,0
2018-12-19T07:06:49.174Z,0
2018-12-19T07:07:49.742Z,0
2018-12-19T07:08:50.310Z,0
2018-12-19T07:09:50.929Z,0
2018-12-19T07:10:51.496Z,0
2018-12-19T07:11:52.064Z,0
2018-12-19T07:12:52.633Z,0
2018-12-19T07:13:53.293Z,0
2018-12-19T07:14:53.859Z,0
2018-12-19T07:15:54.428Z,0
2018-12-19T07:16:54.998Z,0
2018-12-19T07:17:55.565Z,0
2018-12-19T07:18:56.132Z,0
2018-12-19T07:19:56.700Z,0
2018-12-19T07:20:57.268Z,0
2018-12-19T07:21:58.036Z,0
2018-12-19T07:22:58.605Z,0
2018-12-19T07:23:59.175Z,0
2018-12-19T07:24:59.743Z,0
2018-12-19T07:26:00.360Z,0
2018-12-19T07:27:00.937Z,0
2018-12-19T07:28:01.540Z,0
2018-12-19T07:29:02.108Z,0
2018-12-19T07:30:02.722Z,0
2018-12-19T07:31:03.341Z,0
2018-12-19T07:32:03.911Z,0
2018-12-19T07:33:04.479Z,0
2018-12-19T07:34:05.047Z,0
2018-12-19T07:35:05.618Z,0
2018-12-19T07:36:06.184Z,0
2018-12-19T07:37:06.752Z,0
2018-12-19T07:38:07.322Z,0
2018-12-19T07:39:07.988Z,0
2018-12-19T07:40:08.560Z,8
2018-12-19T07:41:09.177Z,4
2018-12-19T07:42:09.747Z,4
2018-12-19T07:43:10.358Z,4
2018-12-19T07:44:10.975Z,4
2018-12-19T07:45:11.545Z,0
2018-12-19T07:46:12.164Z,0
2018-12-19T07:47:12.734Z,0
2018-12-19T07:48:13.309Z,0
2018-12-19T07:49:13.913Z,0
2018-12-19T07:50:14.483Z,0
2018-12-19T07:51:15.049Z,0
2018-12-19T07:52:15.616Z,0
2018-12-19T07:53:16.186Z,0
2018-12-19T07:54:16.754Z,0
2018-12-19T07:55:17.322Z,0
2018-12-19T07:56:17.942Z,0
2018-12-19T07:57:18.508Z,0
2018-12-19T07:58:19.075Z,0
2018-12-19T07:59:19.646Z,0
2018-12-19T08:00:20.217Z,0
2018-12-19T08:01:20.875Z,0
2018-12-19T08:02:21.443Z,0
2018-12-19T08:03:22.011Z,0
2018-12-19T08:04:22.580Z,0
2018-12-19T08:05:26.189Z,0
2018-12-19T08:06:23.752Z,0
2018-12-19T08:07:24.422Z,0
2018-12-19T08:08:24.936Z,0
2018-12-19T08:09:25.506Z,0
2018-12-19T08:10:26.071Z,0
2018-12-19T08:11:26.691Z,0
2018-12-19T08:12:27.259Z,0
2018-12-19T08:13:27.828Z,0
2018-12-19T08:14:28.396Z,0
2018-12-19T08:15:29.006Z,0
2018-12-19T08:16:29.590Z,0
2018-12-19T08:17:30.157Z,0
2018-12-19T08:18:30.770Z,0
2018-12-19T08:19:31.386Z,0
2018-12-19T08:20:31.954Z,0
2018-12-19T08:21:32.522Z,0
2018-12-19T08:22:33.091Z,0
2018-12-19T08:23:33.658Z,0
2018-12-19T08:24:34.228Z,0
2018-12-19T08:25:34.797Z,0
2018-12-19T08:26:35.370Z,0
2018-12-19T08:27:35.985Z,0
2018-12-19T08:28:36.553Z,0
2018-12-19T08:29:37.324Z,4
2018-12-19T08:30:37.892Z,4
2018-12-19T08:31:38.460Z,4
2018-12-19T08:32:39.027Z,4
2018-12-19T08:33:39.597Z,4
2018-12-19T08:34:40.165Z,4
2018-12-19T08:35:40.732Z,4
2018-12-19T08:36:41.302Z,4
2018-12-19T08:37:41.873Z,4
2018-12-19T08:38:42.440Z,0
2018-12-19T08:39:43.158Z,0
2018-12-19T08:40:43.727Z,0
2018-12-19T08:41:44.303Z,0
2018-12-19T08:42:44.863Z,0
2018-12-19T08:43:45.434Z,0
2018-12-19T08:44:45.999Z,0
2018-12-19T08:45:46.566Z,0
2018-12-19T08:46:47.184Z,4
2018-12-19T08:47:47.750Z,4
2018-12-19T08:48:48.372Z,4
2018-12-19T08:49:48.938Z,4
2018-12-19T08:50:50.922Z,4
2018-12-19T08:51:51.543Z,4
2018-12-19T08:52:52.114Z,4
2018-12-19T08:54:06.444Z,4
2018-12-19T08:55:07.011Z,4
2018-12-19T08:56:07.583Z,4
2018-12-19T08:57:08.152Z,4
2018-12-19T08:58:08.718Z,4
2018-12-19T08:59:09.286Z,4
2018-12-19T09:00:09.855Z,4
2018-12-19T09:01:10.422Z,4
2018-12-19T09:02:12.040Z,4
2018-12-19T09:03:12.654Z,4
2018-12-19T09:04:13.229Z,4
2018-12-19T09:05:13.801Z,4
2018-12-19T09:06:14.378Z,4
2018-12-19T09:07:15.002Z,4
2018-12-19T09:08:15.578Z,4
2018-12-19T09:09:16.156Z,4
2018-12-19T09:10:16.731Z,4
2018-12-19T09:11:17.308Z,4
2018-12-19T09:12:17.883Z,8
2018-12-19T09:13:18.468Z,4
2018-12-19T09:14:19.077Z,4
2018-12-19T09:15:19.650Z,4
2018-12-19T09:16:20.224Z,4
2018-12-19T09:17:20.798Z,4
2018-12-19T09:18:21.372Z,4
2018-12-19T09:19:21.944Z,4
2018-12-19T09:20:22.519Z,4
2018-12-19T09:21:23.145Z,4
2018-12-19T09:24:15.080Z,4
2018-12-19T09:26:58.910Z,8
2018-12-19T09:30:50.150Z,8
2018-12-19T09:38:19.786Z,4
2018-12-19T09:43:14.450Z,4
2018-12-19T09:44:59.417Z,8
2018-12-19T09:46:00.032Z,8
2018-12-19T09:47:00.596Z,8
2018-12-19T09:48:01.169Z,8
2018-12-19T09:49:01.731Z,8
2018-12-19T09:50:02.296Z,8
2018-12-19T09:51:02.865Z,8
2018-12-19T09:52:03.428Z,8
2018-12-19T09:53:03.997Z,8
2018-12-19T09:54:04.565Z,8
2018-12-19T09:57:44.233Z,8
2018-12-19T10:00:24.271Z,8
2018-12-19T10:02:09.366Z,4
2018-12-19T10:03:09.938Z,4
2018-12-19T10:04:10.512Z,8
2018-12-19T10:05:11.088Z,8
2018-12-19T10:06:11.660Z,8
2018-12-19T10:07:12.284Z,8
2018-12-19T10:08:12.859Z,8
2018-12-19T10:09:14.990Z,8
2018-12-19T10:10:15.056Z,8
2018-12-19T10:11:18.693Z,8
2018-12-19T10:12:17.198Z,8
2018-12-19T10:13:17.772Z,4
2018-12-19T10:14:18.345Z,8
2018-12-19T10:15:18.967Z,4
2018-12-19T10:16:19.593Z,8
2018-12-19T10:17:20.167Z,4
2018-12-19T10:18:20.745Z,8
2018-12-19T10:19:21.317Z,8
2018-12-19T10:20:21.890Z,8
2018-12-19T10:21:22.463Z,8
2018-12-19T10:22:23.036Z,8
2018-12-19T10:23:23.609Z,8
2018-12-19T10:24:24.182Z,8
2018-12-19T10:25:24.816Z,8
2018-12-19T10:26:25.422Z,8
2018-12-19T10:27:25.998Z,8
2018-12-19T10:28:26.572Z,8
2018-12-19T10:29:27.149Z,8
2018-12-19T10:30:27.722Z,8
2018-12-19T10:31:28.347Z,8
2018-12-19T10:32:28.972Z,8
2018-12-19T10:33:29.545Z,8
2018-12-19T10:34:30.120Z,8
2018-12-19T10:35:30.693Z,8
2018-12-19T10:36:31.266Z,8
2018-12-19T10:37:31.839Z,8
2018-12-19T10:38:32.413Z,8
2018-12-19T10:39:32.985Z,8
2018-12-19T10:40:33.557Z,8
2018-12-19T10:41:34.129Z,8
2018-12-19T10:42:34.706Z,8
2018-12-19T10:43:35.319Z,8
2018-12-19T10:44:35.892Z,8
2018-12-19T10:45:36.516Z,8
2018-12-19T10:46:38.355Z,8
2018-12-19T10:47:38.656Z,8
2018-12-19T10:48:39.379Z,8
2018-12-19T10:49:40.002Z,8
2018-12-19T10:50:40.574Z,8
2018-12-19T10:51:41.151Z,12
2018-12-19T10:52:41.724Z,8
2018-12-19T10:53:42.302Z,8
2018-12-19T10:54:42.874Z,8
2018-12-19T10:55:43.449Z,8
2018-12-19T10:56:44.023Z,12
2018-12-19T10:57:44.600Z,12
2018-12-19T10:58:45.215Z,8
2018-12-19T10:59:45.791Z,8
2018-12-19T11:00:46.405Z,4
2018-12-19T11:01:46.980Z,8
2018-12-19T11:02:47.609Z,8
2018-12-19T11:03:48.178Z,4
2018-12-19T11:04:48.753Z,4
2018-12-19T11:05:54.290Z,0
2018-12-19T11:06:50.891Z,4
2018-12-19T11:07:51.515Z,4
2018-12-19T11:08:52.088Z,4
2018-12-19T11:09:52.711Z,4
2018-12-19T11:10:53.286Z,8
2018-12-19T11:11:53.865Z,12
2018-12-19T11:12:54.486Z,12
2018-12-19T11:13:55.055Z,8
2018-12-19T11:14:55.632Z,12
2018-12-19T11:15:56.205Z,12
2018-12-19T11:16:56.779Z,12
2018-12-19T11:17:57.353Z,8
2018-12-19T11:18:57.926Z,12
2018-12-19T11:19:58.500Z,12
2018-12-19T11:20:59.073Z,12
2018-12-19T11:21:59.702Z,12
2018-12-19T11:23:00.273Z,12
2018-12-19T11:24:00.851Z,16
2018-12-19T11:25:01.473Z,12
2018-12-19T11:26:02.048Z,12
2018-12-19T11:27:02.626Z,12
2018-12-19T11:28:03.199Z,16
2018-12-19T11:29:03.776Z,16
2018-12-19T11:30:04.351Z,16
2018-12-19T11:31:04.975Z,12
2018-12-19T11:32:05.550Z,16
2018-12-19T11:33:06.125Z,16
2018-12-19T11:34:06.702Z,16
2018-12-19T11:35:07.278Z,16
2018-12-19T11:36:07.854Z,12
2018-12-19T11:37:08.427Z,12
2018-12-19T11:38:09.000Z,16
2018-12-19T11:39:09.575Z,16
2018-12-19T11:40:10.149Z,16
2018-12-19T11:41:10.725Z,12
2018-12-19T11:42:11.301Z,12
2018-12-19T11:43:11.925Z,16
2018-12-19T11:44:12.548Z,16
2018-12-19T11:45:13.122Z,12
2018-12-19T11:46:13.697Z,12
2018-12-19T11:47:14.272Z,16
2018-12-19T11:48:14.899Z,12
2018-12-19T11:49:15.470Z,12
2018-12-19T11:50:16.044Z,16
2018-12-19T11:51:16.617Z,16
2018-12-19T11:52:17.194Z,12
2018-12-19T11:53:17.769Z,16
2018-12-19T11:54:18.396Z,16
2018-12-19T11:55:19.013Z,16
2018-12-19T11:56:19.588Z,16
2018-12-19T11:57:20.163Z,16
2018-12-19T11:58:20.740Z,16
2018-12-19T11:59:21.367Z,12
2018-12-19T12:00:21.992Z,16
2018-12-19T12:01:22.567Z,16
2018-12-19T12:02:23.142Z,16
2018-12-19T12:03:23.717Z,16
2018-12-19T12:04:24.290Z,12
2018-12-19T12:05:24.864Z,12
2018-12-19T12:06:25.488Z,12
2018-12-19T12:07:26.060Z,8
2018-12-19T12:08:26.638Z,8
2018-12-19T12:09:27.213Z,8
2018-12-19T12:10:27.787Z,8
2018-12-19T12:11:28.363Z,8
2018-12-19T12:12:28.934Z,8
2018-12-19T12:13:29.756Z,8
2018-12-19T12:14:30.386Z,8
2018-12-19T12:15:30.956Z,8
2018-12-19T12:16:31.544Z,8
2018-12-19T12:17:32.255Z,8
2018-12-19T12:18:32.827Z,8
2018-12-19T12:19:33.401Z,8
2018-12-19T12:20:33.977Z,8
2018-12-19T12:21:34.601Z,8
2018-12-19T12:22:35.175Z,8
2018-12-19T12:23:35.798Z,8
2018-12-19T12:24:36.371Z,8
2018-12-19T12:25:36.944Z,8
2018-12-19T12:26:37.517Z,8
2018-12-19T12:27:38.091Z,8
2018-12-19T12:28:38.664Z,8
2018-12-19T12:29:39.239Z,8
2018-12-19T12:30:39.861Z,8
2018-12-19T12:31:40.434Z,8
2018-12-19T12:32:41.107Z,8
2018-12-19T12:33:41.679Z,8
2018-12-19T12:34:42.254Z,8
2018-12-19T12:35:42.926Z,8
2018-12-19T12:36:43.500Z,8
2018-12-19T12:37:44.075Z,8
2018-12-19T12:38:44.651Z,8
2018-12-19T12:39:45.223Z,8
2018-12-19T12:40:45.796Z,8
2018-12-19T12:41:52.150Z,8
2018-12-19T12:42:47.939Z,8
2018-12-19T12:43:48.514Z,8
2018-12-19T12:44:49.090Z,8
2018-12-19T12:45:49.706Z,8
2018-12-19T12:46:50.331Z,8
2018-12-19T12:47:50.904Z,8
2018-12-19T12:48:51.477Z,8
2018-12-19T12:49:52.101Z,12
2018-12-19T12:50:52.725Z,12
2018-12-19T12:51:53.299Z,12
2018-12-19T12:52:53.876Z,8
2018-12-19T12:53:54.446Z,8
2018-12-19T12:54:55.023Z,12
2018-12-19T12:55:55.599Z,12
2018-12-19T12:56:56.173Z,8
2018-12-19T12:57:56.751Z,8
2018-12-19T12:58:57.322Z,12
2018-12-19T12:59:57.895Z,8
2018-12-19T13:00:58.470Z,12
2018-12-19T13:01:59.042Z,8
2018-12-19T13:02:59.619Z,8
2018-12-19T13:04:00.194Z,12
2018-12-19T13:05:00.817Z,12
2018-12-19T13:06:01.392Z,8
2018-12-19T13:07:02.011Z,12
2018-12-19T13:08:02.636Z,8
2018-12-19T13:09:03.259Z,8
2018-12-19T13:10:03.876Z,8
2018-12-19T13:11:04.451Z,8
2018-12-19T13:12:05.074Z,8
2018-12-19T13:13:05.645Z,8
2018-12-19T13:14:06.218Z,8
2018-12-19T13:15:06.845Z,8
2018-12-19T13:16:07.417Z,8
2018-12-19T13:17:07.990Z,8
2018-12-19T13:18:08.565Z,8
2018-12-19T13:19:09.191Z,8
2018-12-19T13:20:09.768Z,8
2018-12-19T13:21:10.342Z,8
2018-12-19T13:22:12.370Z,12
2018-12-19T13:23:12.485Z,12
2018-12-19T13:24:13.062Z,12
2018-12-19T13:25:13.687Z,12
2018-12-19T13:26:14.261Z,12
2018-12-19T13:27:14.885Z,12
2018-12-19T13:28:15.462Z,12
2018-12-19T13:29:16.042Z,8
2018-12-19T13:30:16.669Z,8
2018-12-19T13:31:17.243Z,8
2018-12-19T13:32:17.819Z,8
2018-12-19T13:33:18.391Z,12
2018-12-19T13:34:18.967Z,12
2018-12-19T13:35:19.540Z,8
2018-12-19T13:36:20.115Z,8
2018-12-19T13:37:20.747Z,8
2018-12-19T13:38:21.278Z,12
2018-12-19T13:39:21.859Z,12
2018-12-19T13:40:22.521Z,12
2018-12-19T13:41:23.095Z,12
2018-12-19T13:42:23.708Z,12
2018-12-19T13:43:24.298Z,12
2018-12-19T13:46:12.229Z,8
2018-12-19T13:47:12.796Z,12
2018-12-19T13:49:52.619Z,8
2018-12-19T14:16:18.019Z,8
2018-12-19T14:17:24.851Z,8
2018-12-19T14:20:39.119Z,8
2018-12-19T14:46:19.845Z,12
2018-12-19T14:47:20.409Z,8
2018-12-19T14:54:10.406Z,12
2018-12-19T14:55:24.795Z,12
2018-12-19T14:57:40.787Z,16
2018-12-19T14:58:41.360Z,16
2018-12-19T15:00:57.308Z,16
2018-12-19T15:07:39.631Z,20
2018-12-19T15:11:58.316Z,8
2018-12-19T15:12:58.883Z,8
2018-12-19T15:15:22.833Z,12
2018-12-19T15:16:53.193Z,12
2018-12-19T15:43:51.579Z,24
2018-12-19T15:44:52.197Z,24
2018-12-19T15:46:10.582Z,12
2018-12-19T15:47:11.149Z,8
2018-12-19T15:50:06.945Z,8
2018-12-19T15:51:07.512Z,12
2018-12-19T15:52:08.080Z,16
2018-12-19T15:55:15.889Z,28
2018-12-19T15:56:16.460Z,28
2018-12-19T15:57:17.026Z,28
2018-12-19T16:00:58.319Z,20
2018-12-19T16:03:34.143Z,24
2018-12-19T16:14:57.929Z,8
2018-12-19T16:51:12.755Z,0
2018-12-19T17:17:02.313Z,0
2018-12-19T17:24:47.847Z,0
2018-12-19T17:26:18.288Z,0
2018-12-19T17:28:04.654Z,0
2018-12-19T17:34:52.753Z,0
2018-12-19T17:42:47.383Z,0
2018-12-19T17:44:09.778Z,0
2018-12-19T17:51:31.364Z,0
2018-12-19T18:37:43.071Z,8
2018-12-19T18:44:35.622Z,8
2018-12-19T18:45:36.186Z,8
2018-12-19T18:48:05.399Z,8
2018-12-19T18:49:05.966Z,8
2018-12-19T18:59:14.981Z,8
2018-12-19T19:03:12.195Z,8
2018-12-19T19:04:13.002Z,8
2018-12-19T19:05:13.537Z,8
2018-12-19T19:06:27.947Z,8
2018-12-19T19:07:28.558Z,8
2018-12-19T19:08:29.073Z,8
2018-12-19T19:10:31.256Z,8
2018-12-19T19:11:45.593Z,8
2018-12-19T19:12:46.154Z,8
2018-12-19T19:13:46.724Z,8
2018-12-19T19:14:47.293Z,8
2018-12-19T19:15:47.857Z,8
2018-12-19T19:16:48.427Z,8
2018-12-19T19:17:48.998Z,8
2018-12-19T19:18:49.561Z,8
2018-12-19T19:20:08.100Z,8
2018-12-19T19:23:32.129Z,8
2018-12-19T19:27:33.541Z,8
2018-12-19T19:32:53.532Z,8
2018-12-19T19:34:11.917Z,8
2018-12-19T19:38:09.280Z,8
2018-12-19T19:51:16.787Z,8
2018-12-19T19:52:11.698Z,8
2018-12-19T19:55:48.480Z,8
2018-12-19T19:56:49.089Z,8
2018-12-19T20:00:07.604Z,8
2018-12-19T20:01:08.226Z,8
2018-12-19T20:04:32.447Z,8
2018-12-19T20:05:33.012Z,8
2018-12-19T20:07:39.509Z,8
2018-12-19T20:08:40.061Z,8
2018-12-19T20:09:40.629Z,8
2018-12-19T20:12:10.477Z,8
2018-12-19T20:13:11.097Z,8
2018-12-19T20:14:11.662Z,8
2018-12-19T20:15:12.273Z,0
2018-12-19T20:16:12.890Z,0
2018-12-19T20:17:13.455Z,0
2018-12-19T20:18:14.024Z,0
2018-12-19T20:19:28.569Z,0
2018-12-19T20:20:29.175Z,0
2018-12-19T20:21:29.744Z,0
2018-12-19T20:22:30.354Z,0
2018-12-19T20:23:30.922Z,0
2018-12-19T20:24:31.490Z,0
2018-12-19T20:27:15.320Z,4
2018-12-19T20:31:08.676Z,8
2018-12-19T20:54:47.873Z,8
2018-12-19T21:04:50.460Z,8
2018-12-19T21:05:51.116Z,8
2018-12-19T21:07:19.458Z,8
2018-12-19T21:08:20.026Z,8
2018-12-19T21:09:20.634Z,8
2018-12-19T21:10:21.202Z,8
2018-12-19T21:11:21.851Z,8
2018-12-19T21:12:22.470Z,8
2018-12-19T21:13:23.081Z,8
2018-12-19T21:15:38.039Z,8
2018-12-19T21:16:52.514Z,8
2018-12-19T21:17:53.080Z,8
2018-12-19T21:21:10.680Z,8
2018-12-19T21:40:53.451Z,8
2018-12-19T21:42:07.980Z,8
2018-12-19T21:46:30.667Z,8
2018-12-19T21:49:06.870Z,8
2018-12-19T21:56:43.181Z,8
2018-12-19T21:57:43.775Z,8
2018-12-19T21:58:44.354Z,8
2018-12-19T21:59:44.968Z,8